Time;durP1;ratioP1;P1;durP2;ratioP2;P2;SDS_P1;SDS_P2;PMS_P1;PMS_P2;Temp;Humidity;BMP_temperature;BMP_pressure;BME280_temperature;BME280_humidity;BME280_pressure;Samples;Min_cycle;Max_cycle;Signal;HPM_P1;HPM_P2
2021/09/22 00:00:32;;;;;;;2.33;1.90;;;;;;;26.63;33.26;97780.13;5034222;28;20029;-29
2021/09/22 00:02:57;;;;;;;2.90;2.20;;;;;;;26.64;33.32;97783.56;5030628;28;20033;-31
2021/09/22 00:05:23;;;;;;;2.95;2.05;;;;;;;26.64;33.32;97776.56;5033227;28;20040;-28
2021/09/22 00:07:48;;;;;;;2.05;1.85;;;;;;;26.63;33.28;97779.25;5033103;28;20051;-29
2021/09/22 00:10:16;;;;;;;3.10;1.98;;;;;;;26.64;33.26;97770.44;5032098;28;20045;-30
2021/09/22 00:12:42;;;;;;;1.73;1.63;;;;;;;26.64;33.22;97773.06;5031008;28;20029;-27
2021/09/22 00:15:08;;;;;;;1.90;1.80;;;;;;;26.64;33.06;97759.91;5032555;28;20056;-29
2021/09/22 00:17:34;;;;;;;3.40;2.00;;;;;;;26.64;33.34;97765.16;5032749;28;20028;-29
2021/09/22 00:20:00;;;;;;;2.00;1.75;;;;;;;26.63;33.32;97756.44;5033516;28;20024;-29
2021/09/22 00:22:25;;;;;;;1.85;1.70;;;;;;;26.64;33.37;97763.41;5030786;28;20017;-29
2021/09/22 00:24:51;;;;;;;2.35;1.92;;;;;;;26.63;33.24;97758.22;5027897;28;20025;-27
2021/09/22 00:27:16;;;;;;;4.47;1.88;;;;;;;26.63;33.30;97763.47;5038625;28;20029;-28
2021/09/22 00:29:41;;;;;;;2.10;1.90;;;;;;;26.64;33.34;97770.44;5029465;28;20044;-27
2021/09/22 00:32:07;;;;;;;2.30;2.10;;;;;;;26.63;33.30;97766.09;5028610;28;20040;-29
2021/09/22 00:34:32;;;;;;;1.90;1.80;;;;;;;26.63;33.30;97758.22;5029996;28;20021;-28
2021/09/22 00:36:58;;;;;;;2.00;1.70;;;;;;;26.63;33.31;97763.47;5030990;28;20710;-30
2021/09/22 00:39:23;;;;;;;2.22;1.80;;;;;;;26.62;33.23;97762.63;5024784;28;20045;-27
2021/09/22 00:41:49;;;;;;;2.10;1.90;;;;;;;26.62;33.22;97765.25;5037940;28;20040;-31
2021/09/22 00:44:14;;;;;;;2.00;1.80;;;;;;;26.62;33.28;97765.25;5033231;28;20040;-29
2021/09/22 00:46:39;;;;;;;3.15;1.90;;;;;;;26.62;33.35;97775.78;5032395;28;20102;-28
2021/09/22 00:49:05;;;;;;;2.05;1.85;;;;;;;26.63;33.24;97773.97;5029175;28;20046;-30
2021/09/22 00:51:30;;;;;;;2.38;1.70;;;;;;;26.61;33.18;97760.91;5026845;28;20032;-30
2021/09/22 00:53:55;;;;;;;1.67;1.50;;;;;;;26.62;33.31;97767.91;5024446;28;20037;-29
2021/09/22 00:56:21;;;;;;;1.88;1.77;;;;;;;26.63;33.34;97763.47;5026974;28;20045;-28
2021/09/22 00:58:46;;;;;;;1.67;1.58;;;;;;;26.61;33.60;97767.03;5028426;28;20606;-29
2021/09/22 01:01:12;;;;;;;3.08;1.88;;;;;;;26.62;33.45;97754.75;5030510;28;20029;-28
2021/09/22 01:03:37;;;;;;;1.70;1.60;;;;;;;26.62;33.23;97762.63;5027112;28;20054;-29
2021/09/22 01:06:02;;;;;;;1.80;1.70;;;;;;;26.63;33.33;97766.09;5031773;28;20395;-29
2021/09/22 01:08:29;;;;;;;2.22;1.60;;;;;;;26.63;33.37;97768.72;5033397;28;20052;-29
2021/09/22 01:10:54;;;;;;;1.45;1.35;;;;;;;26.63;33.24;97771.34;5026184;28;20032;-28
2021/09/22 01:13:19;;;;;;;2.50;1.80;;;;;;;26.61;33.31;97772.28;5031469;28;20384;-31
2021/09/22 01:15:45;;;;;;;1.70;1.60;;;;;;;26.61;33.44;97769.66;5029133;28;20104;-28
2021/09/22 01:18:15;;;;;;;1.85;1.70;;;;;;;26.61;33.38;97776.69;5033324;28;20036;-29
2021/09/22 01:20:41;;;;;;;1.80;1.70;;;;;;;26.61;33.41;97772.28;5016936;28;20384;-29
2021/09/22 01:23:08;;;;;;;1.67;1.50;;;;;;;26.61;33.42;97761.75;5030786;28;20032;-30
2021/09/22 01:25:39;;;;;;;1.80;1.70;;;;;;;26.61;33.36;97769.66;5030683;28;20671;-28
2021/09/22 01:28:04;;;;;;;1.70;1.60;;;;;;;26.61;33.46;97771.41;5026853;28;20112;-29
2021/09/22 01:30:30;;;;;;;2.35;1.50;;;;;;;26.61;33.40;97779.31;5031010;28;20122;-31
2021/09/22 01:33:05;;;;;;;2.10;1.90;;;;;;;26.61;33.32;97780.16;5028921;28;20028;-30
2021/09/22 01:35:41;;;;;;;2.75;1.92;;;;;;;26.61;33.49;97779.31;5033850;28;20508;-28
2021/09/22 01:38:10;;;;;;;1.65;1.55;;;;;;;26.61;33.33;97784.56;5031722;28;20028;-30
2021/09/22 01:40:35;;;;;;;1.88;1.70;;;;;;;26.60;33.50;97775.84;5026619;28;20083;-27
2021/09/22 01:43:01;;;;;;;1.80;1.70;;;;;;;26.61;33.47;97776.69;5028710;28;20549;-26
2021/09/22 01:45:27;;;;;;;1.73;1.63;;;;;;;26.60;33.30;97778.47;5029653;28;20496;-29
2021/09/22 01:47:52;;;;;;;2.65;2.40;;;;;;;26.61;33.39;97781.94;5020334;28;20056;-29
2021/09/22 01:50:19;;;;;;;3.45;2.10;;;;;;;26.60;33.39;97781.09;5020555;28;20048;-30
2021/09/22 01:52:45;;;;;;;2.33;1.65;;;;;;;26.61;33.36;97781.94;5025256;28;20032;-30
2021/09/22 01:55:10;;;;;;;1.88;1.70;;;;;;;26.60;33.42;97772.34;5027388;28;20033;-29
2021/09/22 01:57:36;;;;;;;2.33;1.80;;;;;;;26.60;33.54;97769.72;5028009;28;20026;-26
2021/09/22 02:00:02;;;;;;;2.20;1.83;;;;;;;26.60;33.48;97775.84;5028032;28;20068;-28
2021/09/22 02:02:28;;;;;;;1.83;1.70;;;;;;;26.59;33.44;97779.34;5031145;28;20163;-30
2021/09/22 02:04:54;;;;;;;2.13;1.75;;;;;;;26.60;33.44;97786.34;5031383;28;20021;-30
2021/09/22 02:07:19;;;;;;;2.33;1.92;;;;;;;26.60;33.55;97785.47;5027755;28;20232;-27
2021/09/22 02:09:45;;;;;;;3.25;1.90;;;;;;;26.60;33.32;97775.84;5028589;28;20028;-28
2021/09/22 02:12:10;;;;;;;1.73;1.63;;;;;;;26.60;33.41;97775.84;5030878;28;20045;-31
2021/09/22 02:14:35;;;;;;;2.55;1.92;;;;;;;26.59;33.38;97763.59;5029944;28;20762;-28
2021/09/22 02:17:01;;;;;;;2.50;1.80;;;;;;;26.59;33.63;97768.84;5032414;28;20033;-28
2021/09/22 02:19:26;;;;;;;2.78;1.73;;;;;;;26.57;33.42;97765.44;5029622;28;20603;-29
2021/09/22 02:21:52;;;;;;;2.35;1.65;;;;;;;26.58;33.38;97767.13;5030981;28;20399;-27
2021/09/22 02:24:18;;;;;;;2.15;1.95;;;;;;;26.58;33.43;97767.13;5029776;28;20039;-31
2021/09/22 02:26:43;;;;;;;2.63;1.50;;;;;;;26.59;33.40;97763.59;5036374;28;20489;-30
2021/09/22 02:29:09;;;;;;;2.08;1.77;;;;;;;26.59;33.43;97757.50;5031128;28;20126;-26
2021/09/22 02:31:34;;;;;;;2.28;1.60;;;;;;;26.59;33.34;97763.59;5025858;28;20071;-31
2021/09/22 02:34:00;;;;;;;2.70;1.95;;;;;;;26.58;33.46;97761.88;5028883;28;20029;-28
2021/09/22 02:36:25;;;;;;;2.30;1.65;;;;;;;26.57;33.48;97760.19;5029482;28;20484;-28
2021/09/22 02:38:51;;;;;;;1.63;1.52;;;;;;;26.58;33.44;97761.88;5024678;28;20032;-30
2021/09/22 02:41:17;;;;;;;1.73;1.63;;;;;;;26.58;33.45;97761.88;5023868;28;20044;-26
2021/09/22 02:43:42;;;;;;;1.98;1.75;;;;;;;26.58;33.31;97761.88;5028018;28;20420;-29
2021/09/22 02:46:08;;;;;;;1.88;1.70;;;;;;;26.58;33.22;97754.00;5020006;28;20439;-29
2021/09/22 02:48:33;;;;;;;5.05;1.60;;;;;;;26.58;33.41;97748.75;5026029;28;20026;-30
2021/09/22 02:50:59;;;;;;;1.80;1.70;;;;;;;26.58;33.47;97748.75;5034978;28;20025;-29
2021/09/22 02:53:24;;;;;;;2.10;1.40;;;;;;;26.57;33.42;97749.66;5011356;28;20021;-28
2021/09/22 02:55:49;;;;;;;1.90;1.70;;;;;;;26.56;33.46;97750.59;5030733;28;20028;-28
2021/09/22 02:58:15;;;;;;;1.67;1.58;;;;;;;26.57;33.38;97749.66;5028426;28;20118;-32
2021/09/22 03:00:40;;;;;;;3.00;1.70;;;;;;;26.56;33.51;97747.97;5034399;28;20017;-31
2021/09/22 03:03:06;;;;;;;1.70;1.60;;;;;;;26.56;33.44;97753.22;5031656;28;20029;-28
2021/09/22 03:05:31;;;;;;;2.35;1.70;;;;;;;26.55;33.47;97746.22;5034279;28;20048;-28
2021/09/22 03:07:57;;;;;;;3.05;1.70;;;;;;;26.57;33.38;97741.78;5037243;28;20020;-30
2021/09/22 03:10:22;;;;;;;1.85;1.70;;;;;;;26.56;33.49;97742.69;5029353;28;20022;-32
2021/09/22 03:12:48;;;;;;;2.30;1.60;;;;;;;26.56;33.48;97741.84;5029559;28;20041;-27
2021/09/22 03:15:13;;;;;;;2.33;1.75;;;;;;;26.56;33.36;97742.69;5030555;28;20044;-29
2021/09/22 03:17:38;;;;;;;1.60;1.50;;;;;;;26.57;33.63;97743.53;5031438;28;20052;-30
2021/09/22 03:20:05;;;;;;;1.58;1.45;;;;;;;26.56;33.53;97747.09;5028784;28;20024;-27
2021/09/22 03:22:30;;;;;;;2.97;1.60;;;;;;;26.56;33.53;97747.09;5031715;28;20417;-28
2021/09/22 03:24:55;;;;;;;1.75;1.63;;;;;;;26.54;33.51;97747.16;5031868;28;20033;-31
2021/09/22 03:27:21;;;;;;;1.52;1.42;;;;;;;26.55;33.43;97743.59;5034129;28;20504;-26
2021/09/22 03:29:46;;;;;;;1.60;1.50;;;;;;;26.55;33.55;97735.72;5032640;28;20569;-26
2021/09/22 03:32:12;;;;;;;1.60;1.50;;;;;;;26.55;33.55;97734.88;5029345;28;20020;-33
2021/09/22 03:34:37;;;;;;;1.63;1.52;;;;;;;26.54;33.57;97739.28;5028722;28;20502;-30
2021/09/22 03:37:03;;;;;;;1.85;1.75;;;;;;;26.55;33.56;97735.72;5036758;28;20039;-24
2021/09/22 03:39:28;;;;;;;2.30;1.48;;;;;;;26.55;33.42;97740.97;5030226;28;20021;-28
2021/09/22 03:41:53;;;;;;;1.50;1.40;;;;;;;26.55;33.46;97740.97;5027140;28;20033;-30
2021/09/22 03:44:19;;;;;;;1.70;1.52;;;;;;;26.54;33.56;97744.53;5033062;28;20040;-27
2021/09/22 03:46:44;;;;;;;2.30;1.48;;;;;;;26.54;33.52;97749.78;5034093;28;20162;-28
2021/09/22 03:49:10;;;;;;;2.33;1.90;;;;;;;26.54;33.58;97749.78;5030595;28;20029;-29
2021/09/22 03:51:35;;;;;;;2.15;1.45;;;;;;;26.54;33.43;97757.66;5030804;28;20025;-28
2021/09/22 03:54:01;;;;;;;4.10;1.80;;;;;;;26.55;33.45;97762.00;5031280;28;20079;-31
2021/09/22 03:56:26;;;;;;;1.77;1.67;;;;;;;26.54;33.49;97765.56;5036073;28;20043;-31
2021/09/22 03:58:51;;;;;;;3.10;1.58;;;;;;;26.53;33.39;97761.22;5027887;28;20514;-30
2021/09/22 04:01:18;;;;;;;1.70;1.60;;;;;;;26.54;33.58;97769.97;5035781;28;20559;-31
2021/09/22 04:03:44;;;;;;;1.67;1.58;;;;;;;26.53;33.56;97769.09;5026363;28;20035;-32
2021/09/22 04:06:09;;;;;;;1.85;1.60;;;;;;;26.54;33.46;97770.81;5035830;28;20033;-28
2021/09/22 04:08:34;;;;;;;1.67;1.45;;;;;;;26.54;33.40;97777.88;5031557;28;20547;-28
2021/09/22 04:11:00;;;;;;;1.48;1.35;;;;;;;26.54;33.61;97780.50;5031178;28;20091;-30
2021/09/22 04:13:25;;;;;;;1.55;1.45;;;;;;;26.53;33.58;97784.88;5027405;28;20087;-28
2021/09/22 04:15:51;;;;;;;2.35;1.58;;;;;;;26.52;33.57;97775.28;5029877;28;20033;-31
2021/09/22 04:18:16;;;;;;;2.22;1.70;;;;;;;26.52;33.47;97777.91;5028710;28;20029;-26
2021/09/22 04:20:41;;;;;;;2.15;1.77;;;;;;;26.52;33.53;97777.91;5028150;28;21702;-27
2021/09/22 04:23:07;;;;;;;1.45;1.35;;;;;;;26.49;33.55;97778.03;5028677;28;20029;-27
2021/09/22 04:25:32;;;;;;;1.77;1.50;;;;;;;26.53;33.59;97778.75;5030681;28;20474;-29
2021/09/22 04:27:58;;;;;;;3.20;1.70;;;;;;;26.52;33.53;97772.66;5028737;28;20047;-30
2021/09/22 04:30:23;;;;;;;2.75;1.65;;;;;;;26.52;33.47;97770.03;5026765;28;20043;-29
2021/09/22 04:32:49;;;;;;;2.08;1.83;;;;;;;26.52;33.68;97771.78;5031922;28;20029;-28
2021/09/22 04:35:14;;;;;;;1.48;1.38;;;;;;;26.52;33.56;97769.16;5035305;28;20036;-29
2021/09/22 04:37:40;;;;;;;1.50;1.40;;;;;;;26.51;33.50;97776.22;5028794;28;20492;-30
2021/09/22 04:40:08;;;;;;;2.90;1.63;;;;;;;26.51;33.49;97776.22;5031952;28;20116;-27
2021/09/22 04:42:33;;;;;;;1.40;1.30;;;;;;;26.51;33.43;97770.97;5034280;28;20033;-31
2021/09/22 04:44:59;;;;;;;1.45;1.35;;;;;;;26.48;33.53;97771.06;5033996;28;20063;-28
2021/09/22 04:47:24;;;;;;;1.70;1.60;;;;;;;26.51;33.53;97770.09;5031935;28;20501;-29
2021/09/22 04:49:49;;;;;;;1.70;1.60;;;;;;;26.50;33.55;97771.84;5004578;28;20037;-28
2021/09/22 04:52:15;;;;;;;1.60;1.50;;;;;;;26.50;33.58;97769.22;5021194;28;20044;-28
2021/09/22 04:54:40;;;;;;;1.60;1.50;;;;;;;26.50;33.50;97769.22;5021290;28;20017;-29
2021/09/22 04:57:06;;;;;;;2.17;1.45;;;;;;;26.50;33.48;97777.09;5021193;28;20036;-27
2021/09/22 04:59:31;;;;;;;1.40;1.30;;;;;;;26.51;33.42;97776.22;5032841;28;20036;-25
2021/09/22 05:01:56;;;;;;;2.05;1.40;;;;;;;26.52;33.57;97771.78;5030764;28;20032;-27
2021/09/22 05:04:22;;;;;;;2.13;1.40;;;;;;;26.49;33.49;97775.41;5032151;28;20067;-29
2021/09/22 05:06:47;;;;;;;1.58;1.48;;;;;;;26.49;33.59;97775.41;5031069;28;20396;-33
2021/09/22 05:09:13;;;;;;;1.30;1.20;;;;;;;26.50;33.55;97768.38;5029367;28;20033;-28
2021/09/22 05:11:40;;;;;;;2.83;1.58;;;;;;;26.50;33.64;97773.66;5028365;28;20029;-31
2021/09/22 05:14:05;;;;;;;2.33;1.50;;;;;;;26.49;33.50;97783.28;5027429;28;20157;-30
2021/09/22 05:16:31;;;;;;;1.48;1.38;;;;;;;26.50;33.53;97774.47;5032075;28;20036;-27
2021/09/22 05:18:56;;;;;;;1.67;1.20;;;;;;;26.49;33.51;97778.03;5034596;28;20079;-29
2021/09/22 05:21:21;;;;;;;1.73;1.63;;;;;;;26.49;33.44;97778.03;5031073;28;20024;-30
2021/09/22 05:23:47;;;;;;;1.77;1.50;;;;;;;26.50;33.49;97782.38;5030365;28;20745;-26
2021/09/22 05:26:12;;;;;;;1.73;1.30;;;;;;;26.48;33.50;97779.78;5027854;28;20069;-28
2021/09/22 05:28:38;;;;;;;1.92;1.30;;;;;;;26.49;33.60;97783.28;5028490;28;20044;-29
2021/09/22 05:31:03;;;;;;;1.45;1.20;;;;;;;26.49;33.60;97783.28;5032315;28;20025;-29
2021/09/22 05:33:28;;;;;;;1.50;1.40;;;;;;;26.48;33.53;97782.44;5034510;28;20372;-27
2021/09/22 05:35:54;;;;;;;1.65;1.23;;;;;;;26.49;33.77;97785.91;5026607;28;20037;-28
2021/09/22 05:38:19;;;;;;;1.73;1.55;;;;;;;26.48;33.62;97781.59;5032036;28;20025;-28
2021/09/22 05:40:45;;;;;;;2.22;1.73;;;;;;;26.48;33.51;97781.59;5029693;28;20037;-27
2021/09/22 05:43:10;;;;;;;1.65;1.30;;;;;;;26.46;33.41;97784.28;5032611;28;20029;-32
2021/09/22 05:45:35;;;;;;;1.70;1.50;;;;;;;26.47;33.46;97788.59;5032921;28;20029;-29
2021/09/22 05:48:01;;;;;;;2.20;1.50;;;;;;;26.47;33.61;97790.41;5026164;28;20044;-31
2021/09/22 05:50:26;;;;;;;1.42;1.33;;;;;;;26.47;33.64;97785.97;5025257;28;20029;-25
2021/09/22 05:52:52;;;;;;;2.08;1.50;;;;;;;26.47;33.38;97785.13;5029812;28;20033;-27
2021/09/22 05:55:17;;;;;;;1.50;1.40;;;;;;;26.46;33.46;97786.91;5024394;28;20107;-28
2021/09/22 05:57:42;;;;;;;1.63;1.40;;;;;;;26.47;33.52;97779.88;5027965;28;20025;-29
2021/09/22 06:00:08;;;;;;;1.83;1.50;;;;;;;26.47;33.64;97785.13;5025493;28;20033;-30
2021/09/22 06:02:34;;;;;;;1.52;1.42;;;;;;;26.47;33.50;97779.88;5025396;28;20041;-28
2021/09/22 06:04:59;;;;;;;1.50;1.40;;;;;;;26.42;33.63;97772.16;5028086;28;20026;-29
2021/09/22 06:07:25;;;;;;;2.95;1.60;;;;;;;26.46;33.77;97778.16;5017922;28;20021;-29
2021/09/22 06:09:51;;;;;;;1.52;1.33;;;;;;;26.47;33.60;97785.13;5030796;28;20585;-30
2021/09/22 06:12:17;;;;;;;2.17;1.70;;;;;;;26.46;33.64;97788.66;5026803;28;20061;-31
2021/09/22 06:14:43;;;;;;;2.03;1.65;;;;;;;26.46;33.56;97793.91;5007108;28;20025;-27
2021/09/22 06:17:08;;;;;;;3.80;1.80;;;;;;;26.45;33.44;97782.56;5020699;28;20118;-30
2021/09/22 06:19:33;;;;;;;23.25;2.38;;;;;;;26.45;33.67;97784.34;5014301;28;20379;-32
2021/09/22 06:21:59;;;;;;;6.60;2.40;;;;;;;26.45;33.44;97786.97;5025441;28;20025;-27
2021/09/22 06:24:24;;;;;;;9.68;2.17;;;;;;;26.45;33.63;97792.22;5023837;28;21793;-28
2021/09/22 06:26:50;;;;;;;14.13;3.72;;;;;;;26.43;33.05;97791.44;5020538;28;20418;-29
2021/09/22 06:29:15;;;;;;;12.38;4.10;;;;;;;26.41;33.27;97791.50;5028910;28;20487;-29
2021/09/22 06:31:41;;;;;;;16.45;3.90;;;;;;;26.41;33.30;97790.63;5027736;28;20468;-28
2021/09/22 06:34:06;;;;;;;6.75;3.00;;;;;;;26.42;33.39;97792.31;5014011;28;20021;-28
2021/09/22 06:36:32;;;;;;;13.38;4.13;;;;;;;26.43;33.44;97794.06;5028330;28;20033;-30
2021/09/22 06:38:57;;;;;;;9.75;3.95;;;;;;;26.44;33.35;97795.78;5015017;28;20075;-28
2021/09/22 06:41:27;;;;;;;10.88;4.75;;;;;;;26.44;32.92;97796.63;5025409;28;20407;-29
2021/09/22 06:43:53;;;;;;;10.63;4.78;;;;;;;26.42;31.97;97798.44;5022984;28;20038;-27
2021/09/22 06:46:18;;;;;;;11.77;5.40;;;;;;;26.40;31.22;97791.53;5026567;28;20711;-24
2021/09/22 06:48:44;;;;;;;10.55;5.22;;;;;;;26.36;30.94;97793.44;5024889;28;20728;-29
2021/09/22 06:51:11;;;;;;;10.65;5.35;;;;;;;26.33;30.87;97789.19;5027124;28;20029;-28
2021/09/22 06:53:37;;;;;;;10.65;5.32;;;;;;;26.30;30.56;97789.28;5024840;28;20017;-28
2021/09/22 06:56:03;;;;;;;10.75;5.38;;;;;;;26.28;30.63;97790.25;5026465;28;20025;-27
2021/09/22 06:58:29;;;;;;;10.95;5.05;;;;;;;26.24;30.53;97792.13;5030069;28;20116;-29
2021/09/22 07:00:54;;;;;;;8.90;5.00;;;;;;;26.22;30.54;97792.19;5027967;28;20144;-26
2021/09/22 07:03:20;;;;;;;9.50;4.97;;;;;;;26.20;30.56;97794.00;5027063;28;20021;-26
2021/09/22 07:05:45;;;;;;;10.27;5.40;;;;;;;26.18;30.40;97800.25;5027142;28;21386;-28
2021/09/22 07:08:11;;;;;;;12.77;4.78;;;;;;;26.16;30.50;97799.47;5031589;28;20024;-27
2021/09/22 07:10:37;;;;;;;7.85;4.97;;;;;;;26.10;30.53;97790.88;5028151;28;20441;-28
2021/09/22 07:13:03;;;;;;;9.57;5.25;;;;;;;26.13;30.52;97796.94;5026268;28;20100;-26
2021/09/22 07:15:28;;;;;;;6.57;4.90;;;;;;;26.12;30.69;97811.00;5026028;28;20494;-29
2021/09/22 07:17:54;;;;;;;8.43;5.00;;;;;;;26.10;30.53;97817.13;5026640;28;20025;-28
2021/09/22 07:20:19;;;;;;;7.40;4.78;;;;;;;26.08;30.56;97813.72;5025776;28;20419;-28
2021/09/22 07:22:45;;;;;;;9.70;5.55;;;;;;;26.08;30.55;97815.50;5011194;28;20068;-25
2021/09/22 07:25:10;;;;;;;12.50;5.90;;;;;;;26.06;30.62;97812.94;5025484;28;20049;-31
2021/09/22 07:27:36;;;;;;;8.70;4.80;;;;;;;26.05;30.58;97821.72;5026975;28;20030;-34
2021/09/22 07:30:02;;;;;;;6.47;4.95;;;;;;;26.04;30.59;97820.00;5027043;28;20323;-30
2021/09/22 07:32:27;;;;;;;9.77;5.47;;;;;;;26.04;30.74;97830.53;5027585;28;20522;-27
2021/09/22 07:34:53;;;;;;;7.75;5.40;;;;;;;26.03;30.54;97828.81;5027505;28;20052;-27
2021/09/22 07:37:19;;;;;;;9.88;5.40;;;;;;;26.03;30.60;97823.56;5028350;28;20462;-26
2021/09/22 07:39:45;;;;;;;10.20;5.55;;;;;;;26.02;30.52;97832.38;5027741;28;20028;-27
2021/09/22 07:42:13;;;;;;;11.43;6.10;;;;;;;26.03;30.50;97839.31;5028730;28;20067;-31
2021/09/22 07:44:45;;;;;;;9.13;6.00;;;;;;;26.01;30.46;97830.63;5026144;28;20074;-28
2021/09/22 07:47:14;;;;;;;9.10;6.22;;;;;;;26.01;30.32;97825.38;5024741;28;20052;-26
2021/09/22 07:49:42;;;;;;;8.05;5.90;;;;;;;26.00;30.37;97831.53;5030349;28;20116;-28
2021/09/22 07:52:07;;;;;;;12.57;7.22;;;;;;;25.97;30.05;97818.53;5025253;28;20039;-28
2021/09/22 07:54:33;;;;;;;15.32;7.93;;;;;;;25.93;29.93;97817.78;5027501;28;20033;-31
2021/09/22 07:56:58;;;;;;;14.23;8.93;;;;;;;25.86;29.69;97816.31;5030218;28;20087;-27
2021/09/22 07:59:24;;;;;;;14.18;9.90;;;;;;;25.76;28.99;97815.81;5025479;28;20032;-30
2021/09/22 08:01:49;;;;;;;17.83;10.10;;;;;;;25.65;28.65;97812.69;5028559;28;20908;-31
2021/09/22 08:04:14;;;;;;;12.00;10.32;;;;;;;25.56;28.98;97804.25;5030375;28;20040;-29
2021/09/22 08:06:40;;;;;;;14.45;8.85;;;;;;;25.47;29.17;97815.03;5028157;28;20036;-30
2021/09/22 08:09:06;;;;;;;13.32;7.75;;;;;;;25.42;29.58;97820.47;5024603;28;20031;-28
2021/09/22 08:11:31;;;;;;;10.52;6.68;;;;;;;25.41;29.97;97820.53;5026696;28;20481;-30
2021/09/22 08:13:57;;;;;;;13.48;5.63;;;;;;;25.42;30.21;97832.72;5027868;28;20040;-29
2021/09/22 08:16:22;;;;;;;9.27;5.15;;;;;;;25.45;30.59;97828.22;5025467;28;20083;-31
2021/09/22 08:18:47;;;;;;;7.75;4.80;;;;;;;25.50;30.77;97830.69;5026513;28;20029;-26
2021/09/22 08:21:13;;;;;;;12.25;4.93;;;;;;;25.53;30.95;97825.34;5029003;28;20025;-30
2021/09/22 08:23:40;;;;;;;10.00;5.13;;;;;;;25.59;31.04;97833.94;5028187;28;20074;-28
2021/09/22 08:26:05;;;;;;;9.00;5.00;;;;;;;25.64;31.30;97826.75;5025811;28;20181;-27
2021/09/22 08:28:30;;;;;;;8.20;4.85;;;;;;;25.69;31.37;97835.31;5026495;28;20487;-28
2021/09/22 08:30:56;;;;;;;6.75;4.78;;;;;;;25.74;31.27;97840.41;5026524;28;20033;-26
2021/09/22 08:33:21;;;;;;;6.93;4.32;;;;;;;25.77;31.32;97833.25;5024768;28;20032;-30
2021/09/22 08:35:47;;;;;;;5.97;4.72;;;;;;;25.81;31.46;97841.88;5024549;28;20041;-29
2021/09/22 08:38:12;;;;;;;12.63;5.00;;;;;;;25.85;31.42;97845.25;5026353;28;20025;-28
2021/09/22 08:40:38;;;;;;;8.82;6.03;;;;;;;25.89;31.51;97844.25;5021267;28;20524;-29
2021/09/22 08:43:03;;;;;;;12.35;7.35;;;;;;;25.91;31.02;97835.38;5026714;28;20037;-27
2021/09/22 08:45:30;;;;;;;14.05;7.60;;;;;;;25.92;30.81;97841.47;5029515;28;20055;-27
2021/09/22 08:47:55;;;;;;;12.05;7.38;;;;;;;25.91;30.12;97835.38;5025181;28;20115;-27
2021/09/22 08:50:21;;;;;;;11.80;6.75;;;;;;;25.91;29.85;97835.38;5024932;28;20037;-27
2021/09/22 08:52:47;;;;;;;10.30;7.50;;;;;;;25.90;29.64;97835.44;5015958;28;20029;-29
2021/09/22 08:55:13;;;;;;;14.63;7.15;;;;;;;25.88;29.20;97830.25;5019072;28;20587;-30
2021/09/22 08:57:38;;;;;;;8.60;6.20;;;;;;;25.86;29.10;97831.22;5021077;28;20549;-28
2021/09/22 09:00:05;;;;;;;8.95;5.47;;;;;;;25.83;28.47;97825.16;5018538;28;20052;-26
2021/09/22 09:02:45;;;;;;;8.02;5.40;;;;;;;25.80;28.20;97827.91;5020719;28;20032;-30
2021/09/22 09:05:12;;;;;;;10.13;4.97;;;;;;;25.77;27.90;97828.00;5024743;28;20095;-28
2021/09/22 09:08:00;;;;;;;7.82;4.97;;;;;;;25.76;27.98;97828.06;5015940;28;20235;-26
2021/09/22 09:10:31;;;;;;;6.07;4.50;;;;;;;25.74;27.57;97837.78;5018302;28;20052;-30
2021/09/22 09:13:03;;;;;;;6.20;4.50;;;;;;;25.71;27.68;97833.50;5014041;28;20083;-30
2021/09/22 09:15:31;;;;;;;8.38;4.53;;;;;;;25.69;28.00;97824.81;5020188;28;20044;-28
2021/09/22 09:17:59;;;;;;;6.53;4.13;;;;;;;25.69;27.98;97827.44;5024448;28;20037;-31
2021/09/22 09:20:25;;;;;;;5.18;4.20;;;;;;;25.70;28.22;97827.38;5028824;28;20040;-28
2021/09/22 09:23:05;;;;;;;7.07;4.10;;;;;;;25.73;28.66;97830.81;5029738;28;20028;-27
2021/09/22 09:25:33;;;;;;;6.90;4.20;;;;;;;25.73;28.50;97821.16;5029514;28;20043;-29
2021/09/22 09:27:58;;;;;;;5.70;4.18;;;;;;;25.75;28.44;97824.59;5020939;28;20055;-28
2021/09/22 09:30:26;;;;;;;9.13;4.03;;;;;;;25.77;28.55;97821.88;5024667;28;20029;-29
2021/09/22 09:32:52;;;;;;;11.10;4.22;;;;;;;25.78;28.74;97826.25;5027685;28;20036;-29
2021/09/22 09:35:21;;;;;;;6.22;3.75;;;;;;;25.79;28.55;97818.31;5030145;28;20032;-28
2021/09/22 09:37:51;;;;;;;6.72;4.13;;;;;;;25.81;29.10;97824.34;5024373;28;20560;-26
2021/09/22 09:40:17;;;;;;;9.95;4.15;;;;;;;25.83;29.50;97816.44;5023478;28;20491;-29
2021/09/22 09:42:42;;;;;;;6.47;3.80;;;;;;;25.85;29.40;97816.38;5016941;28;20025;-26
2021/09/22 09:45:08;;;;;;;6.95;3.60;;;;;;;25.85;29.70;97811.97;5024815;28;20093;-29
2021/09/22 09:47:34;;;;;;;7.05;3.55;;;;;;;25.87;30.18;97817.16;5023404;28;20538;-28
2021/09/22 09:50:21;;;;;;;8.88;3.90;;;;;;;25.90;30.26;97817.06;5023185;28;20045;-28
2021/09/22 09:52:57;;;;;;;7.47;3.70;;;;;;;25.93;30.43;97822.19;5025389;28;20094;-29
2021/09/22 09:55:24;;;;;;;8.23;3.90;;;;;;;25.94;30.09;97829.16;5021526;28;20932;-29
2021/09/22 09:57:50;;;;;;;8.15;4.13;;;;;;;25.97;29.95;97821.16;5028047;28;20104;-28
2021/09/22 10:00:39;;;;;;;6.13;3.50;;;;;;;25.98;29.81;97814.13;5028522;28;20779;-28
2021/09/22 10:03:11;;;;;;;6.28;4.28;;;;;;;25.99;29.95;97811.47;5027285;28;20399;-28
2021/09/22 10:05:37;;;;;;;5.90;3.60;;;;;;;26.00;29.99;97807.91;5022587;28;20033;-30
2021/09/22 10:08:02;;;;;;;7.35;3.58;;;;;;;26.00;29.64;97802.66;5033902;28;20025;-28
2021/09/22 10:10:28;;;;;;;8.70;4.20;;;;;;;26.01;29.92;97796.47;5025929;28;20089;-28
2021/09/22 10:12:54;;;;;;;7.28;3.90;;;;;;;25.96;30.09;97773.03;5022797;28;20033;-29
2021/09/22 10:15:19;;;;;;;9.00;3.58;;;;;;;26.00;29.30;97781.66;5016077;28;20035;-30
2021/09/22 10:17:45;;;;;;;6.28;3.65;;;;;;;25.99;30.16;97782.56;5025501;28;20484;-27
2021/09/22 10:20:11;;;;;;;12.60;3.80;;;;;;;25.98;29.85;97767.72;5020944;28;20029;-32
2021/09/22 10:22:36;;;;;;;7.63;3.40;;;;;;;25.98;30.25;97762.47;5029761;28;20033;-31
2021/09/22 10:25:02;;;;;;;4.40;3.35;;;;;;;26.02;30.30;97769.31;5031099;28;20035;-30
2021/09/22 10:27:27;;;;;;;7.60;3.20;;;;;;;26.10;29.67;97764.59;5035775;28;20574;-30
2021/09/22 10:29:59;;;;;;;6.50;3.20;;;;;;;26.22;30.27;97765.06;5031725;28;20059;-27
2021/09/22 10:32:35;;;;;;;5.00;3.15;;;;;;;26.34;29.69;97764.59;5045992;28;20025;-30
2021/09/22 10:35:26;;;;;;;4.75;2.70;;;;;;;26.48;29.66;97771.06;5032512;28;20025;-28
2021/09/22 10:37:56;;;;;;;4.90;2.97;;;;;;;26.63;29.61;97763.47;5031174;28;20026;-30
2021/09/22 10:40:33;;;;;;;4.22;2.92;;;;;;;26.75;29.81;97762.97;5034928;28;20500;-28
2021/09/22 10:43:14;;;;;;;6.85;2.55;;;;;;;26.87;29.09;97754.56;5032698;28;20518;-29
2021/09/22 10:45:40;;;;;;;4.90;2.78;;;;;;;26.98;28.93;97758.53;5030583;28;20041;-29
2021/09/22 10:48:15;;;;;;;4.45;3.00;;;;;;;27.08;28.76;97748.47;5032036;28;20026;-27
2021/09/22 10:50:40;;;;;;;6.68;2.72;;;;;;;27.17;28.55;97757.75;5031150;28;20024;-28
2021/09/22 10:53:35;;;;;;;4.93;2.50;;;;;;;27.25;27.76;97742.47;5032867;28;20466;-31
2021/09/22 10:56:12;;;;;;;3.55;2.47;;;;;;;27.34;27.87;97744.69;5031267;28;20649;-31
2021/09/22 10:58:50;;;;;;;3.47;2.45;;;;;;;27.41;28.09;97752.34;5029485;28;20082;-30
2021/09/22 11:01:31;;;;;;;6.70;2.70;;;;;;;27.44;27.89;97749.53;5033339;28;20086;-31
2021/09/22 11:03:56;;;;;;;5.40;2.60;;;;;;;27.46;27.71;97755.59;5029009;28;20547;-28
2021/09/22 11:09:10;;;;;;;5.88;2.38;;;;;;;27.44;26.94;97752.19;5029630;28;20028;-31
2021/09/22 11:12:00;;;;;;;5.57;1.95;;;;;;;27.38;26.28;97751.53;5027608;28;20284;-30
2021/09/22 11:14:39;;;;;;;5.13;2.00;;;;;;;27.34;26.34;97755.22;5029247;28;20111;-28
2021/09/22 11:17:11;;;;;;;3.28;2.00;;;;;;;27.29;26.05;97741.41;5029603;28;20172;-32
2021/09/22 11:19:36;;;;;;;;;;;;;;;27.23;26.04;97742.53;5030385;28;20025;-31
2021/09/22 11:22:03;;;;;;;2.47;1.75;;;;;;;27.19;25.95;97734.88;5038116;28;19928;-30
2021/09/22 11:24:30;;;;;;;3.65;1.90;;;;;;;27.12;25.78;97735.13;5035002;28;20043;-29
2021/09/22 11:27:02;;;;;;;7.63;1.98;;;;;;;27.07;25.95;97734.47;5035582;28;20021;-29
2021/09/22 11:29:34;;;;;;;6.45;2.15;;;;;;;27.02;26.08;97739.06;5037753;28;20112;-30
2021/09/22 11:32:00;;;;;;;3.20;1.83;;;;;;;26.98;26.39;97732.22;5034485;28;20021;-29